Time;durP1;ratioP1;P1;durP2;ratioP2;P2;SDS_P1;SDS_P2;PMS_P1;PMS_P2;Temp;Humidity;BMP_temperature;BMP_pressure;BME280_temperature;BME280_humidity;BME280_pressure;Samples;Min_cycle;Max_cycle;Signal;HPM_P1;HPM_P2
2021/12/25 00:01:19;;;;;;;6.15;1.50;;;28.20;97.80;;;;;;4973212;28;20027;-72
2021/12/25 00:03:47;;;;;;;5.13;1.90;;;28.20;97.60;;;;;;4973473;28;20023;-70
2021/12/25 00:06:14;;;;;;;4.47;1.75;;;28.40;98.70;;;;;;4973502;28;20031;-70
2021/12/25 00:08:42;;;;;;;7.10;1.80;;;28.60;98.70;;;;;;4973203;28;20098;-75
2021/12/25 00:11:10;;;;;;;9.90;1.80;;;28.70;98.90;;;;;;4973147;28;20384;-72
2021/12/25 00:13:42;;;;;;;5.18;1.75;;;28.80;98.30;;;;;;4968979;28;20784;-77
2021/12/25 00:16:10;;;;;;;6.00;1.67;;;28.80;98.30;;;;;;4973134;28;20033;-73
2021/12/25 00:18:40;;;;;;;7.72;1.92;;;28.90;98.80;;;;;;4972904;28;20027;-70
2021/12/25 00:21:08;;;;;;;6.65;1.45;;;29.00;99.40;;;;;;4972333;28;20042;-70
2021/12/25 00:23:38;;;;;;;4.97;1.27;;;29.10;99.40;;;;;;4972780;28;20066;-70
2021/12/25 00:26:14;;;;;;;6.88;2.45;;;29.10;98.90;;;;;;4972977;28;20019;-70
2021/12/25 00:36:17;;;;;;;4.78;1.40;;;29.50;99.40;;;;;;4973181;28;20573;-69
2021/12/25 00:38:45;;;;;;;4.95;1.67;;;29.60;98.50;;;;;;4971712;28;20124;-70
2021/12/25 00:41:15;;;;;;;6.03;1.38;;;29.60;98.30;;;;;;4972739;28;20033;-70
2021/12/25 00:43:43;;;;;;;4.65;1.33;;;29.70;97.90;;;;;;4972905;28;20023;-70
2021/12/25 00:46:11;;;;;;;5.93;1.63;;;29.80;97.50;;;;;;4973180;28;20035;-69
2021/12/25 00:48:38;;;;;;;5.40;1.23;;;29.90;97.90;;;;;;4972408;28;20539;-70
2021/12/25 00:51:06;;;;;;;4.50;1.20;;;30.00;97.20;;;;;;4977573;28;20081;-71
2021/12/25 00:53:33;;;;;;;4.63;1.90;;;30.10;96.90;;;;;;4973962;28;20102;-73
2021/12/25 00:56:01;;;;;;;5.43;1.45;;;30.20;96.80;;;;;;4972356;28;20034;-73
2021/12/25 00:58:28;;;;;;;8.70;2.75;;;30.10;96.30;;;;;;4964141;28;20046;-71
2021/12/25 01:00:55;;;;;;;6.68;1.50;;;30.10;96.50;;;;;;4964242;28;20025;-71
2021/12/25 01:03:22;;;;;;;4.25;1.42;;;30.10;96.00;;;;;;4972248;28;20014;-71
2021/12/25 01:05:50;;;;;;;5.18;1.23;;;30.20;96.40;;;;;;4972211;28;20494;-71
2021/12/25 01:08:17;;;;;;;5.13;1.42;;;30.40;96.10;;;;;;4971615;28;20065;-72
2021/12/25 01:10:45;;;;;;;6.07;1.25;;;30.50;95.80;;;;;;4970330;28;20031;-71
2021/12/25 01:13:20;;;;;;;5.63;1.50;;;30.50;95.70;;;;;;4971642;28;20085;-72
2021/12/25 01:16:07;;;;;;;4.97;1.88;;;30.60;95.40;;;;;;4971894;28;20114;-70
2021/12/25 01:19:16;;;;;;;4.00;1.50;;;30.80;95.50;;;;;;4970743;28;20046;-70
2021/12/25 01:26:59;;;;;;;5.65;1.40;;;31.30;94.60;;;;;;4972606;28;20027;-71
2021/12/25 01:29:36;;;;;;;5.03;1.15;;;31.20;94.40;;;;;;4972269;28;20034;-72
2021/12/25 01:37:40;;;;;;;7.22;2.00;;;31.20;94.30;;;;;;4972057;28;20076;-71
2021/12/25 01:40:40;;;;;;;7.15;1.63;;;31.20;93.90;;;;;;4971879;28;20411;-71
2021/12/25 01:48:39;;;;;;;5.88;1.33;;;31.60;93.40;;;;;;4966519;28;20030;-72
2021/12/25 01:51:07;;;;;;;4.97;1.80;;;31.70;93.60;;;;;;4963619;28;20529;-69
2021/12/25 01:53:35;;;;;;;5.40;1.75;;;31.70;93.20;;;;;;4964568;28;20026;-70
2021/12/25 01:56:04;;;;;;;6.93;1.15;;;31.80;92.90;;;;;;4964842;28;20029;-70
2021/12/25 01:58:36;;;;;;;5.88;1.40;;;31.80;93.10;;;;;;4966871;28;20106;-70
2021/12/25 02:01:07;;;;;;;5.10;1.45;;;31.90;92.60;;;;;;4965513;28;20074;-71
2021/12/25 02:03:37;;;;;;;4.65;1.20;;;32.00;93.10;;;;;;4966326;28;20030;-70
2021/12/25 02:06:08;;;;;;;5.15;1.30;;;32.20;92.30;;;;;;4971925;28;20031;-71
2021/12/25 02:08:36;;;;;;;7.15;1.33;;;32.20;91.50;;;;;;4974412;28;20073;-74
2021/12/25 02:11:05;;;;;;;6.10;1.30;;;32.10;92.00;;;;;;4975368;28;20053;-75
2021/12/25 02:13:33;;;;;;;4.47;1.17;;;32.10;92.10;;;;;;4974970;28;20035;-74
2021/12/25 02:16:05;;;;;;;9.55;1.75;;;32.00;92.10;;;;;;4973140;28;20113;-73
2021/12/25 02:18:56;;;;;;;4.10;0.80;;;32.10;92.00;;;;;;4974267;28;20023;-73
2021/12/25 02:21:25;;;;;;;3.95;1.23;;;32.20;92.20;;;;;;4966682;28;20039;-72
2021/12/25 02:23:53;;;;;;;5.80;1.48;;;32.40;91.90;;;;;;4961111;28;20134;-76
2021/12/25 02:26:21;;;;;;;5.60;1.33;;;32.50;92.10;;;;;;4971755;28;20030;-78
2021/12/25 02:28:49;;;;;;;4.40;1.45;;;32.30;91.40;;;;;;4974861;28;20054;-77
2021/12/25 02:31:17;;;;;;;5.20;1.33;;;32.30;91.70;;;;;;4976020;28;20063;-79
2021/12/25 02:33:45;;;;;;;4.55;0.90;;;32.50;91.60;;;;;;4976134;28;20027;-76
2021/12/25 02:36:14;;;;;;;5.85;1.52;;;32.50;91.60;;;;;;4974165;28;20483;-76
2021/12/25 02:38:42;;;;;;;7.53;1.50;;;32.50;91.80;;;;;;4974700;28;20632;-74
2021/12/25 02:41:10;;;;;;;5.20;1.45;;;32.60;91.60;;;;;;4974132;28;20402;-72
2021/12/25 02:43:38;;;;;;;7.10;1.80;;;32.70;91.30;;;;;;4975831;28;20075;-73
2021/12/25 02:46:06;;;;;;;3.80;0.95;;;32.50;91.50;;;;;;4974202;28;20043;-73
2021/12/25 02:48:40;;;;;;;5.43;1.60;;;32.70;91.70;;;;;;4973883;28;20033;-75
2021/12/25 02:51:09;;;;;;;4.35;1.50;;;32.70;91.50;;;;;;4975520;28;20103;-71
2021/12/25 02:53:38;;;;;;;4.35;1.42;;;32.80;91.30;;;;;;4975407;28;20035;-74
2021/12/25 02:56:06;;;;;;;3.60;1.30;;;32.90;90.60;;;;;;4974410;28;20019;-72
2021/12/25 02:58:34;;;;;;;5.50;2.03;;;32.80;90.80;;;;;;4974632;28;20038;-72
2021/12/25 03:01:10;;;;;;;4.22;1.02;;;32.70;90.10;;;;;;4975127;28;20019;-75
2021/12/25 03:03:38;;;;;;;3.80;1.00;;;32.70;90.00;;;;;;4974339;28;20296;-72
2021/12/25 03:06:07;;;;;;;4.57;1.02;;;32.70;90.00;;;;;;4974907;28;20050;-71
2021/12/25 03:08:35;;;;;;;7.82;1.60;;;32.80;90.40;;;;;;4974731;28;20034;-74
2021/12/25 03:11:06;;;;;;;5.95;1.10;;;32.80;89.60;;;;;;4974985;28;20029;-72
2021/12/25 03:14:31;;;;;;;4.63;1.00;;;32.80;90.00;;;;;;4973272;28;20126;-72
2021/12/25 03:16:25;;;;;;;;;;;32.80;89.50;;;;;;4966252;28;20047;-75
2021/12/25 03:18:55;;;;;;;6.57;1.45;;;32.80;90.00;;;;;;4974783;28;19948;-76
2021/12/25 03:21:23;;;;;;;5.47;1.27;;;33.20;87.60;;;;;;4975198;28;20031;-77
2021/12/25 03:23:54;;;;;;;15.45;13.88;;;33.40;86.30;;;;;;4974191;28;20043;-74
2021/12/25 03:26:21;;;;;;;10.67;5.70;;;33.60;86.80;;;;;;4984277;28;20026;-71
2021/12/25 03:28:52;;;;;;;8.63;4.07;;;34.20;83.60;;;;;;4991168;28;20312;-73
2021/12/25 03:31:21;;;;;;;5.53;2.33;;;34.30;82.70;;;;;;4975014;28;20019;-74
2021/12/25 03:33:54;;;;;;;5.15;2.80;;;34.60;82.10;;;;;;4974656;28;20050;-74
2021/12/25 03:36:22;;;;;;;7.63;6.60;;;34.40;80.00;;;;;;4974016;28;20035;-74
2021/12/25 03:38:50;;;;;;;7.72;5.40;;;34.50;79.90;;;;;;4974584;28;20026;-72
2021/12/25 03:41:18;;;;;;;9.80;6.65;;;34.80;79.60;;;;;;4974048;28;20065;-74
2021/12/25 03:43:47;;;;;;;68.35;61.72;;;34.60;79.00;;;;;;4971506;28;20031;-74
2021/12/25 03:46:17;;;;;;;84.72;76.78;;;34.80;80.20;;;;;;4965435;28;20177;-75
2021/12/25 03:57:52;;;;;;;9.45;4.22;;;35.20;79.30;;;;;;4952667;28;20066;-71
2021/12/25 03:59:41;;;;;;;13.80;8.73;;;35.20;78.40;;;;;;4968360;28;20134;-78
2021/12/25 04:02:18;;;;;;;12.57;8.73;;;35.00;79.00;;;;;;4963459;28;20032;-75
2021/12/25 04:04:48;;;;;;;4.03;2.03;;;35.40;78.00;;;;;;4963512;28;20030;-75
2021/12/25 04:10:03;;;;;;;8.07;5.05;;;35.20;79.20;;;;;;4968276;28;20089;-77
2021/12/25 04:12:31;;;;;;;13.65;10.70;;;35.50;78.60;;;;;;4972398;28;20031;-74
2021/12/25 04:14:58;;;;;;;9.35;3.85;;;35.90;78.80;;;;;;4969912;28;20062;-74
2021/12/25 04:17:26;;;;;;;16.52;8.80;;;36.00;77.30;;;;;;4969818;28;20022;-76
2021/12/25 04:19:53;;;;;;;4.68;2.05;;;35.50;77.90;;;;;;4973039;28;20673;-77
2021/12/25 04:22:28;;;;;;;5.78;1.48;;;35.20;78.10;;;;;;4970880;28;20046;-75
2021/12/25 04:24:55;;;;;;;7.28;2.70;;;34.90;78.90;;;;;;4966634;28;20039;-74
2021/12/25 04:27:23;;;;;;;5.15;1.48;;;34.80;79.70;;;;;;4967647;28;20035;-75
2021/12/25 04:29:58;;;;;;;10.32;1.70;;;35.10;79.00;;;;;;4973169;28;20030;-79
2021/12/25 04:32:45;;;;;;;5.78;2.13;;;34.80;79.80;;;;;;4973065;28;20023;-76
2021/12/25 05:02:47;;;;;;;5.60;1.25;;;34.80;79.20;;;;;;4957525;28;20392;-72
2021/12/25 05:05:18;;;;;;;4.60;1.35;;;34.40;80.10;;;;;;4963755;28;20030;-72
2021/12/25 05:07:45;;;;;;;5.97;1.13;;;34.30;81.10;;;;;;4960501;28;20114;-74
2021/12/25 05:10:13;;;;;;;7.25;1.20;;;34.20;81.60;;;;;;4966171;28;20035;-73
2021/12/25 05:12:40;;;;;;;2.90;0.88;;;34.30;81.50;;;;;;4962746;28;20025;-73
2021/12/25 05:15:08;;;;;;;6.72;1.25;;;34.30;80.80;;;;;;4961987;28;20031;-73
2021/12/25 05:17:35;;;;;;;8.93;1.27;;;34.20;81.30;;;;;;4960294;28;20055;-73
2021/12/25 05:20:03;;;;;;;7.53;1.48;;;34.20;81.50;;;;;;4963955;28;20438;-73
2021/12/25 05:22:30;;;;;;;4.78;1.08;;;34.00;82.30;;;;;;4961550;28;20033;-72
2021/12/25 05:24:58;;;;;;;7.60;1.05;;;33.80;83.00;;;;;;4963987;28;20043;-74
2021/12/25 05:27:25;;;;;;;8.27;1.67;;;33.60;83.30;;;;;;4962081;28;20058;-72
2021/12/25 05:29:52;;;;;;;5.03;1.38;;;33.60;83.60;;;;;;4960013;28;20026;-74
2021/12/25 05:32:20;;;;;;;10.05;1.05;;;33.50;83.80;;;;;;4960602;28;20055;-74
2021/12/25 05:34:47;;;;;;;7.07;1.42;;;33.40;83.30;;;;;;4959915;28;20450;-74
2021/12/25 05:37:15;;;;;;;6.43;1.17;;;33.20;84.10;;;;;;4963303;28;20023;-76
2021/12/25 05:39:49;;;;;;;5.82;1.58;;;32.90;84.70;;;;;;4967399;28;20399;-75
2021/12/25 05:42:20;;;;;;;9.23;1.20;;;32.70;85.90;;;;;;4971380;28;20031;-74
2021/12/25 05:44:47;;;;;;;9.02;1.65;;;32.80;85.50;;;;;;4952923;28;20023;-74
2021/12/25 05:47:15;;;;;;;7.43;1.90;;;32.80;85.50;;;;;;4961053;28;20030;-75
2021/12/25 05:49:42;;;;;;;4.93;1.13;;;32.80;85.30;;;;;;4971659;28;20058;-74
2021/12/25 05:52:10;;;;;;;8.45;1.60;;;32.40;85.30;;;;;;4971771;28;20022;-73
2021/12/25 05:54:37;;;;;;;9.90;1.70;;;32.30;86.30;;;;;;4971314;28;20038;-73
2021/12/25 05:57:04;;;;;;;6.28;1.25;;;31.90;87.10;;;;;;4971557;28;20487;-74
2021/12/25 05:59:32;;;;;;;6.38;0.80;;;31.40;88.40;;;;;;4970316;28;20042;-73
2021/12/25 06:01:59;;;;;;;5.60;0.95;;;31.40;88.40;;;;;;4972394;28;20426;-73
2021/12/25 06:04:27;;;;;;;5.75;1.08;;;31.10;88.80;;;;;;4969315;28;20519;-74
2021/12/25 06:06:54;;;;;;;4.78;1.15;;;30.90;90.10;;;;;;4968671;28;20117;-76
2021/12/25 06:09:21;;;;;;;6.80;1.15;;;30.40;90.40;;;;;;4971608;28;20038;-74
2021/12/25 06:11:49;;;;;;;6.72;1.35;;;30.10;90.90;;;;;;4971960;28;20030;-74
2021/12/25 06:14:21;;;;;;;6.28;1.10;;;29.80;91.70;;;;;;4971834;28;20081;-75
2021/12/25 06:16:50;;;;;;;7.32;1.10;;;29.60;92.30;;;;;;4971922;28;20027;-73
2021/12/25 06:19:17;;;;;;;6.38;1.00;;;29.50;92.40;;;;;;4971708;28;20019;-75
2021/12/25 06:21:46;;;;;;;7.43;1.23;;;29.40;92.20;;;;;;4971495;28;20023;-73
2021/12/25 06:24:15;;;;;;;7.85;1.10;;;29.30;92.70;;;;;;4970841;28;20054;-73
2021/12/25 06:26:42;;;;;;;6.43;1.27;;;29.20;93.10;;;;;;4970839;28;20425;-74
2021/12/25 06:29:14;;;;;;;6.60;1.15;;;29.00;93.20;;;;;;4971040;28;20023;-73
2021/12/25 06:31:41;;;;;;;8.95;1.38;;;28.90;93.70;;;;;;4974091;28;20053;-74
2021/12/25 06:34:08;;;;;;;8.75;1.30;;;28.80;94.10;;;;;;4975124;28;20451;-73
2021/12/25 06:36:36;;;;;;;6.78;1.13;;;28.80;93.80;;;;;;4973483;28;20030;-76
2021/12/25 06:39:04;;;;;;;8.60;1.80;;;28.70;94.10;;;;;;4972665;28;20031;-76
2021/12/25 06:41:32;;;;;;;4.95;0.75;;;28.50;94.30;;;;;;4970131;28;20023;-76
2021/12/25 06:43:59;;;;;;;6.25;0.85;;;28.50;94.70;;;;;;4965681;28;20073;-73
2021/12/25 06:46:26;;;;;;;5.45;1.17;;;28.40;94.60;;;;;;4964793;28;20026;-74
2021/12/25 06:48:55;;;;;;;8.48;1.40;;;28.40;94.70;;;;;;4966179;28;20051;-73
2021/12/25 06:51:22;;;;;;;13.63;3.08;;;28.30;95.00;;;;;;4964350;28;20031;-73
2021/12/25 06:53:50;;;;;;;6.95;1.63;;;28.30;95.00;;;;;;4964159;28;20489;-74
2021/12/25 06:56:18;;;;;;;8.30;1.50;;;28.10;95.50;;;;;;4967528;28;20034;-77
2021/12/25 06:58:45;;;;;;;8.98;1.80;;;28.00;95.60;;;;;;4967257;28;20022;-77
2021/12/25 07:01:12;;;;;;;6.82;1.50;;;27.90;95.90;;;;;;4962509;28;20039;-74
2021/12/25 07:03:40;;;;;;;5.65;1.40;;;27.80;96.50;;;;;;4962845;28;20030;-73
2021/12/25 07:06:07;;;;;;;7.43;1.45;;;27.80;96.60;;;;;;4964767;28;20118;-75
2021/12/25 07:08:34;;;;;;;8.02;1.48;;;27.70;96.90;;;;;;4969209;28;20023;-77
2021/12/25 07:11:02;;;;;;;6.50;1.42;;;27.70;97.30;;;;;;4964325;28;20118;-77
2021/12/25 07:13:30;;;;;;;9.48;1.63;;;27.60;97.50;;;;;;4961890;28;20093;-73
2021/12/25 07:15:57;;;;;;;7.75;1.30;;;27.60;97.80;;;;;;4963581;28;20118;-77
2021/12/25 07:18:25;;;;;;;9.27;1.45;;;27.70;98.10;;;;;;4963794;28;20073;-77
2021/12/25 07:20:52;;;;;;;8.48;1.52;;;27.70;98.10;;;;;;4963242;28;20082;-77
2021/12/25 07:23:19;;;;;;;10.75;2.00;;;27.60;98.40;;;;;;4964182;28;20396;-76
2021/12/25 07:25:47;;;;;;;9.05;1.77;;;27.50;98.80;;;;;;4962064;28;20115;-75
2021/12/25 07:28:14;;;;;;;9.88;1.50;;;27.40;98.80;;;;;;4964250;28;20122;-77
2021/12/25 07:30:41;;;;;;;10.20;1.48;;;27.40;99.10;;;;;;4961478;28;20035;-75
2021/12/25 07:33:09;;;;;;;8.93;1.55;;;27.20;99.30;;;;;;4959517;28;20427;-78
2021/12/25 07:35:36;;;;;;;11.43;2.30;;;27.20;99.50;;;;;;4963321;28;20533;-76
2021/12/25 07:38:04;;;;;;;13.02;2.80;;;27.10;99.40;;;;;;4962857;28;20026;-76
2021/12/25 07:40:31;;;;;;;9.38;1.33;;;27.00;99.50;;;;;;4961955;28;20306;-75
2021/12/25 07:42:59;;;;;;;8.48;1.40;;;27.00;99.60;;;;;;4963835;28;20026;-75
2021/12/25 07:45:26;;;;;;;8.20;1.90;;;26.90;99.50;;;;;;4963903;28;20106;-77
2021/12/25 07:48:00;;;;;;;10.50;1.42;;;27.00;99.70;;;;;;4963738;28;20034;-76
2021/12/25 07:50:30;;;;;;;9.25;1.33;;;26.90;99.40;;;;;;4962064;28;20027;-76
2021/12/25 07:52:58;;;;;;;7.50;1.20;;;26.90;99.00;;;;;;4961865;28;20376;-73
2021/12/25 07:55:31;;;;;;;8.98;1.55;;;26.80;98.80;;;;;;4962515;28;20345;-74
2021/12/25 07:58:00;;;;;;;11.13;1.77;;;26.70;98.90;;;;;;4965657;28;20061;-75
2021/12/25 08:00:28;;;;;;;8.15;1.65;;;26.70;98.80;;;;;;4973493;28;20555;-76
2021/12/25 08:02:55;;;;;;;8.25;1.23;;;26.70;98.80;;;;;;4973778;28;20031;-75
2021/12/25 08:05:23;;;;;;;9.07;1.30;;;26.80;98.80;;;;;;4973425;28;20025;-75
2021/12/25 08:07:50;;;;;;;11.05;1.60;;;26.70;98.70;;;;;;4973219;28;20039;-76
2021/12/25 08:10:19;;;;;;;12.18;1.52;;;26.70;98.70;;;;;;4964113;28;20107;-73
2021/12/25 08:12:55;;;;;;;6.10;1.25;;;26.70;98.80;;;;;;4954083;28;20032;-72
2021/12/25 08:15:29;;;;;;;11.60;1.63;;;26.70;98.90;;;;;;4956281;28;20041;-74
2021/12/25 08:18:00;;;;;;;9.25;2.10;;;26.70;99.10;;;;;;4967764;28;20078;-75
2021/12/25 08:20:29;;;;;;;12.63;2.45;;;26.60;99.30;;;;;;4956353;28;20042;-76
2021/12/25 08:22:56;;;;;;;5.78;1.40;;;26.50;99.70;;;;;;4961849;28;20520;-77
2021/12/25 08:25:24;;;;;;;9.02;2.85;;;26.40;99.90;;;;;;4960286;28;20479;-73
2021/12/25 08:27:52;;;;;;;10.10;1.40;;;26.40;99.90;;;;;;4961578;28;20041;-76
2021/12/25 08:30:22;;;;;;;16.88;1.95;;;26.30;99.90;;;;;;4962904;28;20388;-75
2021/12/25 08:32:55;;;;;;;10.98;1.60;;;26.20;99.90;;;;;;4971365;28;20041;-75
2021/12/25 08:35:24;;;;;;;9.10;1.48;;;26.20;99.90;;;;;;4962329;28;20125;-76
2021/12/25 08:37:52;;;;;;;10.27;2.20;;;26.20;99.90;;;;;;4953619;28;20444;-76
2021/12/25 08:40:19;;;;;;;10.93;1.92;;;26.30;99.90;;;;;;4956538;28;20117;-77
2021/12/25 08:42:52;;;;;;;11.45;2.25;;;26.30;99.90;;;;;;4959444;28;20499;-76
2021/12/25 08:48:26;;;;;;;8.68;2.58;;;26.30;99.90;;;;;;4969590;28;20041;-77
2021/12/25 08:50:57;;;;;;;14.00;2.10;;;26.30;99.90;;;;;;4962139;28;20158;-77
2021/12/25 08:53:26;;;;;;;11.45;1.73;;;26.30;99.90;;;;;;4961514;28;20019;-77
2021/12/25 08:55:57;;;;;;;11.07;1.75;;;26.30;99.90;;;;;;4961459;28;20059;-75
2021/12/25 08:58:30;;;;;;;9.20;1.42;;;26.20;99.90;;;;;;4960952;28;20571;-74
2021/12/25 09:01:01;;;;;;;11.45;2.88;;;26.20;99.90;;;;;;4962471;28;20058;-75
2021/12/25 09:03:31;;;;;;;10.43;1.90;;;26.30;99.90;;;;;;4961274;28;20636;-75
2021/12/25 09:06:00;;;;;;;7.43;1.65;;;26.30;99.90;;;;;;4959745;28;20159;-80
2021/12/25 09:08:29;;;;;;;8.95;1.50;;;26.20;99.90;;;;;;4963772;28;20023;-81
2021/12/25 09:10:56;;;;;;;7.70;1.73;;;26.10;99.90;;;;;;4963361;28;20105;-75
2021/12/25 09:13:24;;;;;;;8.90;1.83;;;26.10;99.90;;;;;;4965710;28;20031;-75
2021/12/25 09:15:51;;;;;;;35.35;31.30;;;26.10;99.80;;;;;;4971372;28;20467;-75
2021/12/25 09:18:19;;;;;;;16.85;12.98;;;26.00;99.70;;;;;;4959601;28;20436;-75
2021/12/25 09:20:46;;;;;;;9.50;2.92;;;26.00;99.80;;;;;;4959605;28;20058;-74
2021/12/25 09:23:14;;;;;;;23.50;18.85;;;26.10;99.90;;;;;;4959067;28;20039;-75
2021/12/25 09:25:41;;;;;;;13.45;3.22;;;26.20;99.90;;;;;;4962798;28;20495;-74
2021/12/25 09:28:09;;;;;;;5.72;1.23;;;26.20;99.90;;;;;;4962047;28;20039;-75
2021/12/25 09:30:36;;;;;;;12.52;2.70;;;26.10;99.80;;;;;;4964161;28;20031;-75
2021/12/25 09:33:04;;;;;;;9.07;1.60;;;26.20;99.80;;;;;;4964285;28;20027;-74
2021/12/25 09:35:32;;;;;;;9.10;1.67;;;26.10;99.50;;;;;;4966081;28;20035;-74
2021/12/25 09:37:59;;;;;;;10.20;1.77;;;26.10;99.50;;;;;;4966236;28;20027;-76
2021/12/25 09:40:26;;;;;;;9.65;1.10;;;26.00;99.70;;;;;;4966978;28;20059;-76
2021/12/25 09:42:55;;;;;;;12.15;2.40;;;26.00;99.90;;;;;;4966610;28;20118;-76
2021/12/25 09:45:24;;;;;;;9.57;2.13;;;26.00;99.90;;;;;;4967008;28;20023;-75
2021/12/25 09:47:51;;;;;;;6.90;1.60;;;25.90;99.90;;;;;;4966858;28;20123;-74
2021/12/25 09:50:19;;;;;;;6.55;1.35;;;25.90;99.90;;;;;;4967035;28;20027;-74
2021/12/25 09:52:47;;;;;;;9.77;1.90;;;25.80;99.90;;;;;;4967158;28;20027;-73
2021/12/25 09:55:16;;;;;;;8.25;1.48;;;25.80;99.90;;;;;;4970794;28;20046;-73
2021/12/25 09:57:43;;;;;;;10.93;2.30;;;25.80;99.90;;;;;;4966689;28;20050;-75
2021/12/25 10:00:22;;;;;;;13.50;5.05;;;25.80;99.90;;;;;;4965921;28;20065;-75
2021/12/25 10:02:55;;;;;;;7.10;2.35;;;25.80;99.90;;;;;;4967861;28;20019;-75
2021/12/25 10:05:37;;;;;;;10.52;1.75;;;25.70;99.90;;;;;;4962728;28;20431;-74
2021/12/25 10:08:18;;;;;;;12.68;2.63;;;25.80;99.90;;;;;;4975598;28;20106;-76
2021/12/25 10:11:01;;;;;;;10.73;1.65;;;25.80;99.90;;;;;;4967005;28;20023;-76
2021/12/25 10:13:30;;;;;;;12.20;1.77;;;25.70;99.90;;;;;;4968206;28;20034;-74
2021/12/25 10:16:02;;;;;;;11.75;2.92;;;25.70;99.90;;;;;;4969456;28;20062;-74
2021/12/25 10:18:33;;;;;;;16.85;2.95;;;25.60;99.90;;;;;;4968731;28;20057;-74
2021/12/25 10:21:36;;;;;;;9.73;1.77;;;25.60;99.90;;;;;;4969377;28;20038;-73
2021/12/25 10:24:06;;;;;;;9.38;1.65;;;25.60;99.90;;;;;;4969711;28;20074;-73
2021/12/25 10:26:36;;;;;;;10.80;2.65;;;25.60;99.90;;;;;;4969069;28;20031;-76
2021/12/25 10:29:27;;;;;;;10.93;1.80;;;25.60;99.90;;;;;;4968616;28;20550;-72
2021/12/25 10:32:02;;;;;;;10.35;1.92;;;25.60;99.90;;;;;;4969763;28;20038;-75
2021/12/25 10:34:31;;;;;;;10.80;2.80;;;25.60;99.90;;;;;;4970643;28;20133;-73
2021/12/25 10:37:13;;;;;;;14.95;8.05;;;25.60;99.90;;;;;;4969839;28;20027;-71
2021/12/25 10:39:41;;;;;;;18.05;3.55;;;25.50;99.90;;;;;;4968808;28;20037;-73
2021/12/25 10:42:17;;;;;;;10.32;1.67;;;25.50;99.90;;;;;;4968763;28;20500;-73
2021/12/25 10:44:52;;;;;;;10.30;2.08;;;25.50;99.90;;;;;;4969974;28;20031;-75
2021/12/25 10:47:24;;;;;;;11.10;2.20;;;25.40;99.90;;;;;;4974883;28;20026;-73
2021/12/25 10:49:58;;;;;;;10.63;2.28;;;25.30;99.90;;;;;;4975418;28;20019;-75
2021/12/25 10:52:29;;;;;;;7.68;2.00;;;25.30;99.90;;;;;;4975202;28;20077;-75
2021/12/25 10:55:18;;;;;;;16.67;2.87;;;25.40;99.90;;;;;;4975499;28;20099;-75
2021/12/25 10:57:57;;;;;;;18.25;4.40;;;25.40;99.90;;;;;;4975094;28;20343;-76
2021/12/25 11:00:32;;;;;;;11.60;1.85;;;25.30;99.90;;;;;;4974533;28;20062;-77
2021/12/25 11:03:11;;;;;;;10.00;1.70;;;25.30;99.90;;;;;;4974998;28;20030;-77
2021/12/25 11:05:48;;;;;;;14.02;2.38;;;25.30;99.90;;;;;;4973919;28;20037;-70
2021/12/25 11:08:19;;;;;;;9.32;2.00;;;25.20;99.90;;;;;;4975001;28;20104;-75
2021/12/25 11:10:49;;;;;;;9.93;1.67;;;25.20;99.90;;;;;;4975035;28;20074;-75
2021/12/25 11:13:20;;;;;;;9.98;1.90;;;25.20;99.90;;;;;;4975057;28;20023;-76
2021/12/25 11:15:49;;;;;;;11.23;1.80;;;25.10;99.90;;;;;;4961443;28;20391;-76
2021/12/25 11:18:17;;;;;;;11.88;1.63;;;25.10;99.90;;;;;;4969328;28;20023;-75
2021/12/25 11:20:46;;;;;;;7.43;1.75;;;25.10;99.90;;;;;;4969910;28;20041;-75
2021/12/25 11:23:16;;;;;;;9.32;1.90;;;25.00;99.90;;;;;;4969526;28;20515;-75
2021/12/25 11:25:44;;;;;;;21.13;3.60;;;25.00;99.90;;;;;;4968425;28;20067;-74
2021/12/25 11:28:14;;;;;;;12.30;2.17;;;25.00;99.90;;;;;;4969454;28;20026;-79
2021/12/25 11:30:45;;;;;;;33.10;29.52;;;25.10;99.90;;;;;;4969107;28;20034;-73
2021/12/25 11:33:12;;;;;;;15.27;2.50;;;25.10;99.90;;;;;;4968902;28;20023;-73
2021/12/25 11:35:41;;;;;;;15.55;3.25;;;25.10;99.90;;;;;;4968799;28;20137;-74
2021/12/25 11:38:11;;;;;;;12.35;2.95;;;25.10;99.90;;;;;;4968931;28;20042;-76
2021/12/25 11:40:47;;;;;;;9.85;1.90;;;25.10;99.90;;;;;;4969283;28;20042;-74
2021/12/25 11:43:15;;;;;;;13.25;2.17;;;25.10;99.90;;;;;;4969195;28;20053;-75
2021/12/25 11:45:49;;;;;;;15.07;2.30;;;25.00;99.90;;;;;;4969082;28;20058;-74
2021/12/25 11:48:20;;;;;;;12.95;2.47;;;25.00;99.90;;;;;;4969446;28;20396;-73
2021/12/25 11:50:51;;;;;;;11.60;1.83;;;25.00;99.90;;;;;;4969104;28;20031;-74
2021/12/25 11:53:28;;;;;;;12.90;2.38;;;24.90;99.90;;;;;;4968929;28;20428;-75
2021/12/25 11:58:57;;;;;;;9.95;2.38;;;24.80;99.90;;;;;;4969209;28;20041;-74
2021/12/25 12:01:27;;;;;;;14.23;4.15;;;24.80;99.90;;;;;;4968641;28;20128;-75
2021/12/25 12:04:04;;;;;;;10.50;2.42;;;24.70;99.90;;;;;;4967561;28;20133;-75
2021/12/25 12:06:46;;;;;;;9.40;2.13;;;24.70;99.90;;;;;;4968526;28;20538;-75
2021/12/25 12:09:14;;;;;;;14.07;2.88;;;24.70;99.90;;;;;;4968549;28;20106;-76
2021/12/25 12:11:45;;;;;;;13.52;3.03;;;24.70;99.90;;;;;;4968150;28;20744;-74
2021/12/25 12:14:18;;;;;;;13.27;2.05;;;24.60;99.90;;;;;;4968381;28;20566;-73
2021/12/25 12:16:50;;;;;;;9.70;2.22;;;24.60;99.90;;;;;;4968154;28;20031;-72
2021/12/25 12:19:29;;;;;;;;;;;24.60;99.90;;;;;;4967998;28;20035;-72
2021/12/25 12:21:57;;;;;;;12.55;2.05;;;24.60;99.90;;;;;;4968259;28;19918;-72
2021/12/25 12:26:59;;;;;;;11.15;2.20;;;24.50;99.90;;;;;;4967379;28;20030;-72
2021/12/25 12:29:47;;;;;;;9.60;1.85;;;24.50;99.90;;;;;;4968245;28;20105;-74
2021/12/25 12:32:20;;;;;;;9.77;2.67;;;24.40;99.90;;;;;;4966839;28;20403;-74
2021/12/25 12:34:54;;;;;;;11.45;2.63;;;24.40;99.90;;;;;;4967596;28;20480;-73
2021/12/25 12:37:21;;;;;;;9.32;1.40;;;24.40;99.90;;;;;;4967858;28;20022;-74
2021/12/25 12:40:01;;;;;;;9.82;1.77;;;24.40;99.90;;;;;;4967415;28;20031;-73
2021/12/25 12:42:48;;;;;;;14.90;2.28;;;24.40;99.90;;;;;;4968125;28;20023;-74
2021/12/25 12:45:36;;;;;;;9.57;2.25;;;24.30;99.90;;;;;;4964865;28;20043;-73
2021/12/25 12:48:22;;;;;;;14.23;2.17;;;24.40;99.90;;;;;;4967706;28;20035;-75
2021/12/25 12:50:58;;;;;;;7.07;1.50;;;24.40;99.90;;;;;;4967157;28;20061;-74
2021/12/25 12:53:37;;;;;;;9.57;1.73;;;24.30;99.90;;;;;;4966414;28;20031;-76
2021/12/25 12:56:05;;;;;;;11.90;1.55;;;24.30;99.90;;;;;;4969289;28;20466;-73
2021/12/25 12:58:33;;;;;;;12.00;2.42;;;24.30;99.90;;;;;;4967273;28;20034;-73
2021/12/25 13:01:08;;;;;;;10.55;2.15;;;24.30;99.90;;;;;;4967917;28;20101;-75
2021/12/25 13:03:36;;;;;;;11.02;2.13;;;24.20;99.90;;;;;;4967419;28;20038;-75
2021/12/25 13:06:11;;;;;;;13.55;1.90;;;24.20;99.90;;;;;;4967249;28;20076;-74
2021/12/25 13:08:42;;;;;;;11.90;1.70;;;24.20;99.90;;;;;;4967720;28;20110;-76
2021/12/25 13:11:23;;;;;;;11.10;1.60;;;24.30;99.90;;;;;;4967739;28;20030;-75
2021/12/25 13:13:59;;;;;;;10.18;1.38;;;24.20;99.90;;;;;;4966351;28;20042;-74
2021/12/25 13:16:38;;;;;;;10.85;1.77;;;24.20;99.90;;;;;;4968342;28;20042;-76
2021/12/25 13:19:07;;;;;;;9.15;1.55;;;24.30;99.90;;;;;;4967622;28;20123;-74
2021/12/25 13:21:36;;;;;;;12.43;1.73;;;24.20;99.90;;;;;;4969001;28;20030;-76
2021/12/25 13:24:11;;;;;;;11.32;1.95;;;24.20;99.90;;;;;;4970357;28;20102;-75
2021/12/25 13:26:47;;;;;;;10.80;3.03;;;24.20;99.90;;;;;;4972015;28;20030;-75
2021/12/25 13:29:20;;;;;;;9.93;2.58;;;24.10;99.90;;;;;;4972131;28;20027;-75
2021/12/25 13:31:48;;;;;;;8.45;1.88;;;24.10;99.90;;;;;;4972342;28;20354;-78
2021/12/25 13:34:19;;;;;;;11.45;1.92;;;24.10;99.90;;;;;;4972378;28;20027;-75
2021/12/25 13:36:50;;;;;;;8.45;1.55;;;24.00;99.90;;;;;;4972579;28;20360;-75
2021/12/25 13:39:26;;;;;;;16.10;2.35;;;24.00;99.90;;;;;;4974673;28;20098;-77
2021/12/25 13:41:56;;;;;;;11.70;1.80;;;24.00;99.90;;;;;;4976392;28;20476;-74
2021/12/25 13:44:27;;;;;;;15.65;1.95;;;24.00;99.90;;;;;;4975701;28;20031;-74
2021/12/25 13:47:18;;;;;;;8.20;1.50;;;24.00;99.90;;;;;;4976654;28;20023;-76
2021/12/25 13:50:07;;;;;;;8.38;1.63;;;24.00;99.90;;;;;;4976480;28;20030;-75
2021/12/25 13:52:38;;;;;;;9.88;2.13;;;24.00;99.90;;;;;;4976285;28;20467;-75
2021/12/25 13:55:10;;;;;;;7.65;1.90;;;24.00;99.90;;;;;;4976065;28;20082;-75
2021/12/25 13:57:42;;;;;;;9.38;1.95;;;23.90;99.90;;;;;;4975773;28;20027;-75
2021/12/25 14:00:27;;;;;;;7.72;1.90;;;23.90;99.90;;;;;;4976078;28;20030;-76
2021/12/25 14:02:58;;;;;;;13.95;2.90;;;23.80;99.90;;;;;;4976301;28;20387;-77
2021/12/25 14:05:30;;;;;;;11.98;2.15;;;23.80;99.90;;;;;;4975964;28;20026;-76
2021/12/25 14:07:57;;;;;;;8.27;1.55;;;23.80;99.90;;;;;;4975511;28;20078;-77
2021/12/25 14:10:29;;;;;;;6.97;1.20;;;23.80;99.90;;;;;;4975477;28;20050;-76
2021/12/25 14:13:00;;;;;;;11.13;1.90;;;23.80;99.90;;;;;;4974221;28;20496;-76